sensor_id;sensor_type;location;lat;lon;timestamp;P1;durP1;ratioP1;P2;durP2;ratioP2
8857;SDS011;4465;50.904;4.696;2022-07-22T00:02:09;14.98;;;3.97;;
8857;SDS011;4465;50.904;4.696;2022-07-22T00:04:35;11.65;;;3.90;;
8857;SDS011;4465;50.904;4.696;2022-07-22T00:07:01;18.63;;;3.88;;
8857;SDS011;4465;50.904;4.696;2022-07-22T00:09:28;13.73;;;4.18;;
8857;SDS011;4465;50.904;4.696;2022-07-22T00:11:54;21.20;;;3.53;;
8857;SDS011;4465;50.904;4.696;2022-07-22T00:14:20;19.15;;;4.07;;
8857;SDS011;4465;50.904;4.696;2022-07-22T00:16:46;15.32;;;4.00;;
8857;SDS011;4465;50.904;4.696;2022-07-22T00:19:12;13.60;;;4.30;;
8857;SDS011;4465;50.904;4.696;2022-07-22T00:21:38;16.92;;;4.40;;
8857;SDS011;4465;50.904;4.696;2022-07-22T00:24:04;15.30;;;4.35;;
8857;SDS011;4465;50.904;4.696;2022-07-22T00:26:33;14.63;;;4.07;;
8857;SDS011;4465;50.904;4.696;2022-07-22T00:28:59;12.63;;;4.13;;
8857;SDS011;4465;50.904;4.696;2022-07-22T00:31:26;13.82;;;4.18;;
8857;SDS011;4465;50.904;4.696;2022-07-22T00:33:53;12.57;;;4.18;;
8857;SDS011;4465;50.904;4.696;2022-07-22T00:36:19;16.50;;;4.13;;
8857;SDS011;4465;50.904;4.696;2022-07-22T00:38:45;16.20;;;4.43;;
8857;SDS011;4465;50.904;4.696;2022-07-22T00:41:14;12.32;;;3.83;;
8857;SDS011;4465;50.904;4.696;2022-07-22T00:46:45;16.25;;;4.35;;
8857;SDS011;4465;50.904;4.696;2022-07-22T00:49:11;20.92;;;4.68;;
8857;SDS011;4465;50.904;4.696;2022-07-22T00:51:37;19.42;;;4.65;;
8857;SDS011;4465;50.904;4.696;2022-07-22T00:54:04;12.65;;;3.90;;
8857;SDS011;4465;50.904;4.696;2022-07-22T00:56:31;13.02;;;4.03;;
8857;SDS011;4465;50.904;4.696;2022-07-22T00:58:58;12.77;;;4.05;;
8857;SDS011;4465;50.904;4.696;2022-07-22T01:01:26;17.75;;;4.03;;
8857;SDS011;4465;50.904;4.696;2022-07-22T01:03:52;14.80;;;4.18;;
8857;SDS011;4465;50.904;4.696;2022-07-22T01:06:19;14.93;;;4.25;;
8857;SDS011;4465;50.904;4.696;2022-07-22T01:08:45;13.32;;;3.72;;
8857;SDS011;4465;50.904;4.696;2022-07-22T01:11:14;9.45;;;3.72;;
8857;SDS011;4465;50.904;4.696;2022-07-22T01:13:41;13.85;;;4.00;;
8857;SDS011;4465;50.904;4.696;2022-07-22T01:16:09;13.73;;;4.13;;
8857;SDS011;4465;50.904;4.696;2022-07-22T01:21:04;16.35;;;4.20;;
8857;SDS011;4465;50.904;4.696;2022-07-22T01:23:31;11.52;;;3.53;;
8857;SDS011;4465;50.904;4.696;2022-07-22T01:25:58;16.77;;;4.57;;
8857;SDS011;4465;50.904;4.696;2022-07-22T01:28:24;11.00;;;4.00;;
8857;SDS011;4465;50.904;4.696;2022-07-22T01:30:50;13.43;;;4.60;;
8857;SDS011;4465;50.904;4.696;2022-07-22T01:33:17;14.52;;;4.00;;
8857;SDS011;4465;50.904;4.696;2022-07-22T01:35:44;15.25;;;4.70;;
8857;SDS011;4465;50.904;4.696;2022-07-22T01:38:13;12.55;;;4.80;;
8857;SDS011;4465;50.904;4.696;2022-07-22T01:40:40;17.67;;;4.60;;
8857;SDS011;4465;50.904;4.696;2022-07-22T01:45:33;10.85;;;3.90;;
8857;SDS011;4465;50.904;4.696;2022-07-22T01:48:00;13.55;;;4.13;;
8857;SDS011;4465;50.904;4.696;2022-07-22T01:50:26;10.63;;;4.22;;
8857;SDS011;4465;50.904;4.696;2022-07-22T01:52:53;16.13;;;4.30;;
8857;SDS011;4465;50.904;4.696;2022-07-22T01:55:19;19.58;;;5.13;;
8857;SDS011;4465;50.904;4.696;2022-07-22T02:00:13;13.05;;;4.00;;
8857;SDS011;4465;50.904;4.696;2022-07-22T02:02:40;18.52;;;4.45;;
8857;SDS011;4465;50.904;4.696;2022-07-22T02:05:08;13.05;;;3.83;;
8857;SDS011;4465;50.904;4.696;2022-07-22T02:07:34;18.85;;;4.38;;
8857;SDS011;4465;50.904;4.696;2022-07-22T02:10:03;13.55;;;4.32;;
8857;SDS011;4465;50.904;4.696;2022-07-22T02:12:30;15.70;;;4.65;;
8857;SDS011;4465;50.904;4.696;2022-07-22T02:14:56;15.98;;;4.13;;
8857;SDS011;4465;50.904;4.696;2022-07-22T02:17:25;14.13;;;4.00;;
8857;SDS011;4465;50.904;4.696;2022-07-22T02:19:51;12.23;;;4.15;;
8857;SDS011;4465;50.904;4.696;2022-07-22T02:22:17;15.10;;;3.80;;
8857;SDS011;4465;50.904;4.696;2022-07-22T02:24:43;13.52;;;5.05;;
8857;SDS011;4465;50.904;4.696;2022-07-22T02:27:09;11.52;;;3.80;;
8857;SDS011;4465;50.904;4.696;2022-07-22T02:29:36;16.08;;;4.53;;
8857;SDS011;4465;50.904;4.696;2022-07-22T02:32:05;19.42;;;4.45;;
8857;SDS011;4465;50.904;4.696;2022-07-22T02:34:33;13.13;;;4.65;;
8857;SDS011;4465;50.904;4.696;2022-07-22T02:36:59;10.95;;;4.22;;
8857;SDS011;4465;50.904;4.696;2022-07-22T02:39:28;17.25;;;4.88;;
8857;SDS011;4465;50.904;4.696;2022-07-22T02:41:54;21.52;;;5.22;;
8857;SDS011;4465;50.904;4.696;2022-07-22T02:44:20;11.77;;;4.45;;
8857;SDS011;4465;50.904;4.696;2022-07-22T02:46:46;13.75;;;4.55;;
8857;SDS011;4465;50.904;4.696;2022-07-22T02:49:12;15.93;;;4.53;;
8857;SDS011;4465;50.904;4.696;2022-07-22T02:51:38;15.77;;;5.38;;
8857;SDS011;4465;50.904;4.696;2022-07-22T02:54:04;16.50;;;5.28;;
8857;SDS011;4465;50.904;4.696;2022-07-22T02:56:30;19.83;;;6.15;;
8857;SDS011;4465;50.904;4.696;2022-07-22T02:58:57;16.40;;;5.13;;
8857;SDS011;4465;50.904;4.696;2022-07-22T03:01:23;16.00;;;5.28;;
8857;SDS011;4465;50.904;4.696;2022-07-22T03:03:49;15.00;;;4.65;;
8857;SDS011;4465;50.904;4.696;2022-07-22T03:06:17;11.15;;;4.53;;
8857;SDS011;4465;50.904;4.696;2022-07-22T03:08:43;20.42;;;4.63;;
8857;SDS011;4465;50.904;4.696;2022-07-22T03:11:09;19.02;;;5.50;;
8857;SDS011;4465;50.904;4.696;2022-07-22T03:13:35;13.70;;;5.38;;
8857;SDS011;4465;50.904;4.696;2022-07-22T03:16:03;17.63;;;5.38;;
8857;SDS011;4465;50.904;4.696;2022-07-22T03:18:29;15.95;;;5.38;;
8857;SDS011;4465;50.904;4.696;2022-07-22T03:20:55;16.25;;;5.22;;
8857;SDS011;4465;50.904;4.696;2022-07-22T03:23:21;17.35;;;5.30;;
8857;SDS011;4465;50.904;4.696;2022-07-22T03:25:49;17.67;;;5.60;;
8857;SDS011;4465;50.904;4.696;2022-07-22T03:28:15;12.20;;;5.10;;
8857;SDS011;4465;50.904;4.696;2022-07-22T03:30:43;16.23;;;5.65;;
8857;SDS011;4465;50.904;4.696;2022-07-22T03:33:12;18.35;;;5.93;;
8857;SDS011;4465;50.904;4.696;2022-07-22T03:35:38;17.95;;;5.65;;
8857;SDS011;4465;50.904;4.696;2022-07-22T03:38:04;14.77;;;5.57;;
8857;SDS011;4465;50.904;4.696;2022-07-22T03:40:33;21.13;;;5.95;;
8857;SDS011;4465;50.904;4.696;2022-07-22T03:43:00;17.63;;;5.78;;
8857;SDS011;4465;50.904;4.696;2022-07-22T03:45:26;22.75;;;5.55;;
8857;SDS011;4465;50.904;4.696;2022-07-22T03:47:54;17.77;;;5.72;;
8857;SDS011;4465;50.904;4.696;2022-07-22T03:50:23;18.17;;;5.95;;
8857;SDS011;4465;50.904;4.696;2022-07-22T03:52:49;18.05;;;5.53;;
8857;SDS011;4465;50.904;4.696;2022-07-22T03:55:16;16.42;;;6.63;;
8857;SDS011;4465;50.904;4.696;2022-07-22T03:57:42;13.13;;;5.60;;
8857;SDS011;4465;50.904;4.696;2022-07-22T04:00:08;16.70;;;6.53;;
8857;SDS011;4465;50.904;4.696;2022-07-22T04:02:34;20.07;;;5.57;;
8857;SDS011;4465;50.904;4.696;2022-07-22T04:05:00;17.50;;;5.95;;
8857;SDS011;4465;50.904;4.696;2022-07-22T04:07:29;22.35;;;6.55;;
8857;SDS011;4465;50.904;4.696;2022-07-22T04:09:57;19.88;;;5.13;;
8857;SDS011;4465;50.904;4.696;2022-07-22T04:12:34;13.43;;;5.15;;
8857;SDS011;4465;50.904;4.696;2022-07-22T04:15:00;19.38;;;5.35;;
8857;SDS011;4465;50.904;4.696;2022-07-22T04:17:29;19.38;;;6.07;;
8857;SDS011;4465;50.904;4.696;2022-07-22T04:19:56;12.98;;;5.57;;
8857;SDS011;4465;50.904;4.696;2022-07-22T04:22:26;12.50;;;5.65;;
8857;SDS011;4465;50.904;4.696;2022-07-22T04:24:52;12.15;;;5.28;;
8857;SDS011;4465;50.904;4.696;2022-07-22T04:27:19;15.18;;;5.85;;
8857;SDS011;4465;50.904;4.696;2022-07-22T04:29:45;17.60;;;5.50;;
8857;SDS011;4465;50.904;4.696;2022-07-22T04:32:11;13.10;;;5.38;;
8857;SDS011;4465;50.904;4.696;2022-07-22T04:34:37;14.10;;;5.88;;
8857;SDS011;4465;50.904;4.696;2022-07-22T04:37:03;14.75;;;6.47;;
8857;SDS011;4465;50.904;4.696;2022-07-22T04:39:29;18.02;;;6.30;;
8857;SDS011;4465;50.904;4.696;2022-07-22T04:41:55;15.75;;;6.70;;
8857;SDS011;4465;50.904;4.696;2022-07-22T04:44:21;23.23;;;7.13;;
8857;SDS011;4465;50.904;4.696;2022-07-22T04:46:47;20.23;;;6.65;;
8857;SDS011;4465;50.904;4.696;2022-07-22T04:49:13;20.50;;;7.53;;
8857;SDS011;4465;50.904;4.696;2022-07-22T04:51:39;20.25;;;6.47;;
8857;SDS011;4465;50.904;4.696;2022-07-22T04:54:05;20.13;;;7.18;;
8857;SDS011;4465;50.904;4.696;2022-07-22T04:56:33;22.95;;;7.93;;
8857;SDS011;4465;50.904;4.696;2022-07-22T04:58:59;22.77;;;7.47;;
8857;SDS011;4465;50.904;4.696;2022-07-22T05:01:25;23.48;;;7.68;;
8857;SDS011;4465;50.904;4.696;2022-07-22T05:03:54;16.58;;;6.70;;
8857;SDS011;4465;50.904;4.696;2022-07-22T05:06:22;26.67;;;7.72;;
8857;SDS011;4465;50.904;4.696;2022-07-22T05:08:48;23.33;;;6.85;;
8857;SDS011;4465;50.904;4.696;2022-07-22T05:11:16;17.10;;;7.68;;
8857;SDS011;4465;50.904;4.696;2022-07-22T05:13:43;21.03;;;8.43;;
8857;SDS011;4465;50.904;4.696;2022-07-22T05:16:10;18.77;;;7.72;;
8857;SDS011;4465;50.904;4.696;2022-07-22T05:18:35;18.50;;;6.93;;
8857;SDS011;4465;50.904;4.696;2022-07-22T05:21:02;18.75;;;7.93;;
8857;SDS011;4465;50.904;4.696;2022-07-22T05:23:31;24.23;;;7.78;;
8857;SDS011;4465;50.904;4.696;2022-07-22T05:25:57;14.45;;;7.25;;
8857;SDS011;4465;50.904;4.696;2022-07-22T05:28:26;28.60;;;10.13;;
8857;SDS011;4465;50.904;4.696;2022-07-22T05:30:54;25.65;;;9.20;;
8857;SDS011;4465;50.904;4.696;2022-07-22T05:33:20;24.77;;;8.98;;
8857;SDS011;4465;50.904;4.696;2022-07-22T05:35:46;27.58;;;9.25;;
8857;SDS011;4465;50.904;4.696;2022-07-22T05:38:14;25.58;;;9.70;;
8857;SDS011;4465;50.904;4.696;2022-07-22T05:40:40;24.63;;;10.05;;
8857;SDS011;4465;50.904;4.696;2022-07-22T05:43:06;27.63;;;9.77;;
8857;SDS011;4465;50.904;4.696;2022-07-22T05:45:32;18.40;;;9.13;;
8857;SDS011;4465;50.904;4.696;2022-07-22T05:47:58;26.55;;;10.40;;
8857;SDS011;4465;50.904;4.696;2022-07-22T05:50:24;22.92;;;9.48;;
8857;SDS011;4465;50.904;4.696;2022-07-22T05:52:53;27.33;;;9.90;;
8857;SDS011;4465;50.904;4.696;2022-07-22T05:55:19;21.20;;;9.80;;
8857;SDS011;4465;50.904;4.696;2022-07-22T05:57:45;21.70;;;8.98;;
8857;SDS011;4465;50.904;4.696;2022-07-22T06:00:11;18.08;;;8.85;;
8857;SDS011;4465;50.904;4.696;2022-07-22T06:02:40;26.25;;;10.05;;
8857;SDS011;4465;50.904;4.696;2022-07-22T06:05:06;23.73;;;9.57;;
8857;SDS011;4465;50.904;4.696;2022-07-22T06:07:33;20.15;;;9.85;;
8857;SDS011;4465;50.904;4.696;2022-07-22T06:09:59;25.00;;;9.90;;
8857;SDS011;4465;50.904;4.696;2022-07-22T06:12:24;20.35;;;9.32;;
8857;SDS011;4465;50.904;4.696;2022-07-22T06:14:50;24.27;;;8.95;;
8857;SDS011;4465;50.904;4.696;2022-07-22T06:17:16;21.42;;;9.32;;
8857;SDS011;4465;50.904;4.696;2022-07-22T06:19:42;24.58;;;10.05;;
8857;SDS011;4465;50.904;4.696;2022-07-22T06:22:13;18.60;;;8.18;;
8857;SDS011;4465;50.904;4.696;2022-07-22T06:24:39;21.20;;;8.38;;
8857;SDS011;4465;50.904;4.696;2022-07-22T06:27:05;17.60;;;8.85;;
8857;SDS011;4465;50.904;4.696;2022-07-22T06:29:31;17.35;;;9.07;;
8857;SDS011;4465;50.904;4.696;2022-07-22T06:31:57;26.65;;;8.82;;
8857;SDS011;4465;50.904;4.696;2022-07-22T06:34:24;17.38;;;7.78;;
8857;SDS011;4465;50.904;4.696;2022-07-22T06:36:53;20.65;;;7.22;;
8857;SDS011;4465;50.904;4.696;2022-07-22T06:39:18;13.45;;;5.47;;
8857;SDS011;4465;50.904;4.696;2022-07-22T06:41:44;18.25;;;5.45;;
8857;SDS011;4465;50.904;4.696;2022-07-22T06:44:11;15.25;;;5.45;;
8857;SDS011;4465;50.904;4.696;2022-07-22T06:46:40;11.85;;;5.50;;
8857;SDS011;4465;50.904;4.696;2022-07-22T06:49:05;10.73;;;5.30;;
8857;SDS011;4465;50.904;4.696;2022-07-22T06:51:32;18.07;;;7.03;;
8857;SDS011;4465;50.904;4.696;2022-07-22T06:53:59;10.05;;;4.30;;
8857;SDS011;4465;50.904;4.696;2022-07-22T06:56:27;15.05;;;5.35;;
8857;SDS011;4465;50.904;4.696;2022-07-22T06:58:54;14.60;;;5.43;;
8857;SDS011;4465;50.904;4.696;2022-07-22T07:01:20;11.00;;;4.63;;
8857;SDS011;4465;50.904;4.696;2022-07-22T07:03:46;16.05;;;5.32;;
8857;SDS011;4465;50.904;4.696;2022-07-22T07:06:12;10.48;;;4.80;;
8857;SDS011;4465;50.904;4.696;2022-07-22T07:08:38;13.48;;;4.80;;
8857;SDS011;4465;50.904;4.696;2022-07-22T07:13:31;13.35;;;4.30;;
8857;SDS011;4465;50.904;4.696;2022-07-22T07:16:00;17.58;;;4.78;;
8857;SDS011;4465;50.904;4.696;2022-07-22T07:18:26;10.07;;;4.47;;
8857;SDS011;4465;50.904;4.696;2022-07-22T07:20:55;11.38;;;3.95;;
8857;SDS011;4465;50.904;4.696;2022-07-22T07:23:21;9.38;;;3.92;;
8857;SDS011;4465;50.904;4.696;2022-07-22T07:25:48;10.15;;;3.58;;
8857;SDS011;4465;50.904;4.696;2022-07-22T07:28:19;6.32;;;3.58;;
8857;SDS011;4465;50.904;4.696;2022-07-22T07:30:45;9.82;;;3.50;;
8857;SDS011;4465;50.904;4.696;2022-07-22T07:33:12;6.45;;;3.30;;
8857;SDS011;4465;50.904;4.696;2022-07-22T07:35:40;9.05;;;3.28;;
8857;SDS011;4465;50.904;4.696;2022-07-22T07:38:06;13.27;;;3.38;;
8857;SDS011;4465;50.904;4.696;2022-07-22T07:40:32;6.57;;;3.38;;
8857;SDS011;4465;50.904;4.696;2022-07-22T07:42:59;8.18;;;2.92;;
8857;SDS011;4465;50.904;4.696;2022-07-22T07:45:25;9.55;;;2.95;;
8857;SDS011;4465;50.904;4.696;2022-07-22T07:47:51;7.65;;;3.42;;
8857;SDS011;4465;50.904;4.696;2022-07-22T07:50:17;8.02;;;2.95;;
8857;SDS011;4465;50.904;4.696;2022-07-22T07:52:44;11.38;;;2.85;;
8857;SDS011;4465;50.904;4.696;2022-07-22T07:55:13;6.90;;;2.75;;
8857;SDS011;4465;50.904;4.696;2022-07-22T07:57:40;6.72;;;2.60;;
8857;SDS011;4465;50.904;4.696;2022-07-22T08:00:08;11.27;;;3.08;;
8857;SDS011;4465;50.904;4.696;2022-07-22T08:02:36;7.40;;;2.85;;
8857;SDS011;4465;50.904;4.696;2022-07-22T08:05:02;10.45;;;3.15;;
8857;SDS011;4465;50.904;4.696;2022-07-22T08:07:30;7.18;;;2.92;;
8857;SDS011;4465;50.904;4.696;2022-07-22T08:09:56;10.23;;;2.90;;
8857;SDS011;4465;50.904;4.696;2022-07-22T08:12:25;7.35;;;2.70;;
8857;SDS011;4465;50.904;4.696;2022-07-22T08:14:51;5.80;;;2.85;;
8857;SDS011;4465;50.904;4.696;2022-07-22T08:17:17;7.65;;;3.10;;
8857;SDS011;4465;50.904;4.696;2022-07-22T08:19:46;7.60;;;3.15;;
8857;SDS011;4465;50.904;4.696;2022-07-22T08:22:13;9.05;;;2.80;;
8857;SDS011;4465;50.904;4.696;2022-07-22T08:24:39;7.75;;;3.08;;
8857;SDS011;4465;50.904;4.696;2022-07-22T08:27:08;9.25;;;3.33;;
8857;SDS011;4465;50.904;4.696;2022-07-22T08:29:34;8.85;;;3.35;;
8857;SDS011;4465;50.904;4.696;2022-07-22T08:32:00;7.55;;;3.28;;
8857;SDS011;4465;50.904;4.696;2022-07-22T08:34:26;9.25;;;3.38;;
8857;SDS011;4465;50.904;4.696;2022-07-22T08:36:54;7.35;;;3.35;;
8857;SDS011;4465;50.904;4.696;2022-07-22T08:39:27;12.30;;;3.40;;
8857;SDS011;4465;50.904;4.696;2022-07-22T08:41:53;7.05;;;3.05;;
8857;SDS011;4465;50.904;4.696;2022-07-22T08:44:21;9.30;;;3.40;;
8857;SDS011;4465;50.904;4.696;2022-07-22T08:46:49;7.03;;;3.15;;
8857;SDS011;4465;50.904;4.696;2022-07-22T08:49:15;5.65;;;2.80;;
8857;SDS011;4465;50.904;4.696;2022-07-22T08:51:42;6.82;;;3.08;;
8857;SDS011;4465;50.904;4.696;2022-07-22T08:54:08;7.57;;;3.25;;
8857;SDS011;4465;50.904;4.696;2022-07-22T08:56:34;12.07;;;3.92;;
8857;SDS011;4465;50.904;4.696;2022-07-22T08:59:03;6.60;;;3.35;;
8857;SDS011;4465;50.904;4.696;2022-07-22T09:01:30;8.57;;;3.10;;
8857;SDS011;4465;50.904;4.696;2022-07-22T09:03:59;7.45;;;3.45;;
8857;SDS011;4465;50.904;4.696;2022-07-22T09:06:26;14.00;;;3.65;;
8857;SDS011;4465;50.904;4.696;2022-07-22T09:08:56;6.57;;;3.25;;
8857;SDS011;4465;50.904;4.696;2022-07-22T09:11:26;9.70;;;3.42;;
8857;SDS011;4465;50.904;4.696;2022-07-22T09:13:54;7.60;;;2.97;;
8857;SDS011;4465;50.904;4.696;2022-07-22T09:16:40;8.18;;;3.50;;
8857;SDS011;4465;50.904;4.696;2022-07-22T09:19:08;8.43;;;3.42;;
8857;SDS011;4465;50.904;4.696;2022-07-22T09:21:42;6.60;;;3.45;;
8857;SDS011;4465;50.904;4.696;2022-07-22T09:24:30;5.85;;;3.20;;
8857;SDS011;4465;50.904;4.696;2022-07-22T09:26:58;5.47;;;3.10;;
8857;SDS011;4465;50.904;4.696;2022-07-22T09:29:24;11.00;;;3.80;;
8857;SDS011;4465;50.904;4.696;2022-07-22T09:31:51;7.43;;;3.50;;
8857;SDS011;4465;50.904;4.696;2022-07-22T09:34:30;12.63;;;3.97;;
8857;SDS011;4465;50.904;4.696;2022-07-22T09:36:59;7.30;;;3.72;;
8857;SDS011;4465;50.904;4.696;2022-07-22T09:39:26;5.45;;;3.40;;
8857;SDS011;4465;50.904;4.696;2022-07-22T09:41:57;9.50;;;3.28;;
8857;SDS011;4465;50.904;4.696;2022-07-22T09:44:24;6.22;;;3.33;;
8857;SDS011;4465;50.904;4.696;2022-07-22T09:46:50;9.90;;;3.55;;
8857;SDS011;4465;50.904;4.696;2022-07-22T09:52:05;6.47;;;3.42;;
8857;SDS011;4465;50.904;4.696;2022-07-22T09:54:32;10.13;;;3.83;;
8857;SDS011;4465;50.904;4.696;2022-07-22T09:56:59;9.60;;;3.73;;
8857;SDS011;4465;50.904;4.696;2022-07-22T09:59:27;11.90;;;3.72;;
8857;SDS011;4465;50.904;4.696;2022-07-22T10:01:56;7.97;;;3.30;;
8857;SDS011;4465;50.904;4.696;2022-07-22T10:04:24;6.32;;;3.40;;
8857;SDS011;4465;50.904;4.696;2022-07-22T10:06:55;6.90;;;3.13;;
8857;SDS011;4465;50.904;4.696;2022-07-22T10:09:25;11.80;;;4.45;;
8857;SDS011;4465;50.904;4.696;2022-07-22T10:11:53;5.72;;;3.13;;
8857;SDS011;4465;50.904;4.696;2022-07-22T10:14:26;9.25;;;3.58;;
8857;SDS011;4465;50.904;4.696;2022-07-22T10:16:53;6.30;;;3.55;;
8857;SDS011;4465;50.904;4.696;2022-07-22T10:19:19;7.05;;;3.60;;
8857;SDS011;4465;50.904;4.696;2022-07-22T10:21:46;8.10;;;3.85;;
8857;SDS011;4465;50.904;4.696;2022-07-22T10:24:13;6.95;;;3.50;;
8857;SDS011;4465;50.904;4.696;2022-07-22T10:26:55;7.75;;;3.47;;
8857;SDS011;4465;50.904;4.696;2022-07-22T10:29:39;8.07;;;3.67;;
8857;SDS011;4465;50.904;4.696;2022-07-22T10:37:38;8.05;;;3.28;;
8857;SDS011;4465;50.904;4.696;2022-07-22T10:40:21;7.88;;;3.60;;
8857;SDS011;4465;50.904;4.696;2022-07-22T10:43:23;8.13;;;3.30;;
8857;SDS011;4465;50.904;4.696;2022-07-22T10:45:58;5.78;;;3.42;;
8857;SDS011;4465;50.904;4.696;2022-07-22T10:51:08;8.52;;;3.17;;
8857;SDS011;4465;50.904;4.696;2022-07-22T10:56:30;5.95;;;3.13;;
8857;SDS011;4465;50.904;4.696;2022-07-22T11:01:38;6.05;;;3.40;;
8857;SDS011;4465;50.904;4.696;2022-07-22T11:04:10;6.68;;;3.30;;
8857;SDS011;4465;50.904;4.696;2022-07-22T11:06:39;5.95;;;3.28;;
8857;SDS011;4465;50.904;4.696;2022-07-22T11:09:06;8.00;;;3.30;;
8857;SDS011;4465;50.904;4.696;2022-07-22T11:16:43;8.27;;;4.63;;
8857;SDS011;4465;50.904;4.696;2022-07-22T11:19:13;9.20;;;3.40;;
8857;SDS011;4465;50.904;4.696;2022-07-22T11:21:39;7.45;;;3.20;;
8857;SDS011;4465;50.904;4.696;2022-07-22T11:24:06;6.30;;;3.42;;
8857;SDS011;4465;50.904;4.696;2022-07-22T11:29:07;5.57;;;2.97;;
8857;SDS011;4465;50.904;4.696;2022-07-22T11:31:35;5.30;;;3.17;;
8857;SDS011;4465;50.904;4.696;2022-07-22T11:34:05;9.02;;;3.03;;
8857;SDS011;4465;50.904;4.696;2022-07-22T11:36:33;6.05;;;3.10;;
8857;SDS011;4465;50.904;4.696;2022-07-22T11:39:00;5.68;;;3.10;;
8857;SDS011;4465;50.904;4.696;2022-07-22T11:41:27;4.90;;;3.30;;
8857;SDS011;4465;50.904;4.696;2022-07-22T11:43:57;7.03;;;2.92;;
8857;SDS011;4465;50.904;4.696;2022-07-22T11:46:23;8.48;;;3.13;;
8857;SDS011;4465;50.904;4.696;2022-07-22T11:48:51;5.82;;;3.13;;
8857;SDS011;4465;50.904;4.696;2022-07-22T11:51:18;5.05;;;3.00;;
8857;SDS011;4465;50.904;4.696;2022-07-22T11:53:44;6.18;;;3.00;;
8857;SDS011;4465;50.904;4.696;2022-07-22T11:56:11;8.90;;;3.22;;
8857;SDS011;4465;50.904;4.696;2022-07-22T11:58:44;5.28;;;3.42;;
8857;SDS011;4465;50.904;4.696;2022-07-22T12:01:12;6.95;;;3.40;;
8857;SDS011;4465;50.904;4.696;2022-07-22T12:03:41;6.75;;;3.40;;
8857;SDS011;4465;50.904;4.696;2022-07-22T12:06:11;7.32;;;3.30;;
8857;SDS011;4465;50.904;4.696;2022-07-22T12:11:06;7.32;;;3.10;;
8857;SDS011;4465;50.904;4.696;2022-07-22T12:13:38;6.22;;;3.13;;
8857;SDS011;4465;50.904;4.696;2022-07-22T12:16:27;6.25;;;3.03;;
8857;SDS011;4465;50.904;4.696;2022-07-22T12:18:55;6.88;;;3.08;;
8857;SDS011;4465;50.904;4.696;2022-07-22T12:21:24;7.28;;;3.30;;
8857;SDS011;4465;50.904;4.696;2022-07-22T12:24:05;7.05;;;3.00;;
8857;SDS011;4465;50.904;4.696;2022-07-22T12:26:36;6.88;;;3.13;;
8857;SDS011;4465;50.904;4.696;2022-07-22T12:29:17;6.20;;;3.20;;
8857;SDS011;4465;50.904;4.696;2022-07-22T12:34:47;5.88;;;3.17;;
8857;SDS011;4465;50.904;4.696;2022-07-22T12:37:24;5.63;;;2.88;;
8857;SDS011;4465;50.904;4.696;2022-07-22T12:40:02;4.70;;;2.80;;
8857;SDS011;4465;50.904;4.696;2022-07-22T12:47:53;7.45;;;3.45;;
8857;SDS011;4465;50.904;4.696;2022-07-22T12:50:24;5.70;;;3.00;;
8857;SDS011;4465;50.904;4.696;2022-07-22T12:52:59;5.85;;;3.45;;
8857;SDS011;4465;50.904;4.696;2022-07-22T12:55:30;8.88;;;2.70;;
8857;SDS011;4465;50.904;4.696;2022-07-22T12:58:03;10.75;;;3.42;;
8857;SDS011;4465;50.904;4.696;2022-07-22T13:00:40;8.40;;;3.08;;
8857;SDS011;4465;50.904;4.696;2022-07-22T13:03:10;6.68;;;3.00;;
8857;SDS011;4465;50.904;4.696;2022-07-22T13:05:36;7.78;;;2.83;;
8857;SDS011;4465;50.904;4.696;2022-07-22T13:08:05;5.15;;;3.05;;
8857;SDS011;4465;50.904;4.696;2022-07-22T13:10:33;5.18;;;2.80;;
8857;SDS011;4465;50.904;4.696;2022-07-22T13:13:02;7.30;;;2.87;;
8857;SDS011;4465;50.904;4.696;2022-07-22T13:15:28;9.90;;;3.20;;
8857;SDS011;4465;50.904;4.696;2022-07-22T13:17:55;8.13;;;2.88;;
8857;SDS011;4465;50.904;4.696;2022-07-22T13:20:21;8.30;;;2.90;;
8857;SDS011;4465;50.904;4.696;2022-07-22T13:22:47;4.40;;;3.08;;
8857;SDS011;4465;50.904;4.696;2022-07-22T13:25:13;4.07;;;2.50;;
8857;SDS011;4465;50.904;4.696;2022-07-22T13:27:39;7.95;;;3.03;;
8857;SDS011;4465;50.904;4.696;2022-07-22T13:30:06;6.70;;;2.67;;
8857;SDS011;4465;50.904;4.696;2022-07-22T13:32:32;4.50;;;2.60;;
8857;SDS011;4465;50.904;4.696;2022-07-22T13:34:58;5.82;;;2.97;;
8857;SDS011;4465;50.904;4.696;2022-07-22T13:37:24;6.45;;;3.00;;
8857;SDS011;4465;50.904;4.696;2022-07-22T13:39:53;6.82;;;3.03;;
8857;SDS011;4465;50.904;4.696;2022-07-22T13:42:19;8.68;;;2.90;;
8857;SDS011;4465;50.904;4.696;2022-07-22T13:44:45;5.72;;;3.25;;
8857;SDS011;4465;50.904;4.696;2022-07-22T13:47:12;12.68;;;3.45;;
8857;SDS011;4465;50.904;4.696;2022-07-22T13:49:38;8.35;;;3.42;;
8857;SDS011;4465;50.904;4.696;2022-07-22T13:52:04;9.15;;;3.33;;
8857;SDS011;4465;50.904;4.696;2022-07-22T13:54:31;6.25;;;3.63;;
8857;SDS011;4465;50.904;4.696;2022-07-22T13:56:59;7.72;;;3.83;;
8857;SDS011;4465;50.904;4.696;2022-07-22T13:59:26;12.13;;;3.95;;
8857;SDS011;4465;50.904;4.696;2022-07-22T14:01:54;6.75;;;3.30;;
8857;SDS011;4465;50.904;4.696;2022-07-22T14:04:21;6.45;;;3.38;;
8857;SDS011;4465;50.904;4.696;2022-07-22T14:06:47;7.45;;;3.53;;
8857;SDS011;4465;50.904;4.696;2022-07-22T14:09:13;8.45;;;3.92;;
8857;SDS011;4465;50.904;4.696;2022-07-22T14:11:39;7.43;;;3.78;;
8857;SDS011;4465;50.904;4.696;2022-07-22T14:14:07;7.10;;;3.63;;
8857;SDS011;4465;50.904;4.696;2022-07-22T14:16:34;11.45;;;4.07;;
8857;SDS011;4465;50.904;4.696;2022-07-22T14:19:02;7.13;;;3.88;;
8857;SDS011;4465;50.904;4.696;2022-07-22T14:21:30;7.32;;;3.53;;
8857;SDS011;4465;50.904;4.696;2022-07-22T14:26:24;7.65;;;3.67;;
8857;SDS011;4465;50.904;4.696;2022-07-22T14:28:50;9.45;;;3.90;;
8857;SDS011;4465;50.904;4.696;2022-07-22T14:31:18;8.15;;;3.78;;
8857;SDS011;4465;50.904;4.696;2022-07-22T14:33:45;8.80;;;4.00;;
8857;SDS011;4465;50.904;4.696;2022-07-22T14:36:11;6.65;;;3.80;;
8857;SDS011;4465;50.904;4.696;2022-07-22T14:38:38;8.17;;;3.57;;
8857;SDS011;4465;50.904;4.696;2022-07-22T14:41:04;10.38;;;4.05;;
8857;SDS011;4465;50.904;4.696;2022-07-22T14:43:30;6.68;;;3.92;;
8857;SDS011;4465;50.904;4.696;2022-07-22T14:45:55;5.72;;;3.72;;
8857;SDS011;4465;50.904;4.696;2022-07-22T14:48:21;9.07;;;4.05;;
8857;SDS011;4465;50.904;4.696;2022-07-22T14:50:52;7.38;;;4.00;;
8857;SDS011;4465;50.904;4.696;2022-07-22T14:53:21;7.57;;;3.80;;
8857;SDS011;4465;50.904;4.696;2022-07-22T14:55:47;8.02;;;3.97;;
8857;SDS011;4465;50.904;4.696;2022-07-22T14:58:13;8.48;;;3.92;;
8857;SDS011;4465;50.904;4.696;2022-07-22T15:00:40;8.10;;;3.97;;
8857;SDS011;4465;50.904;4.696;2022-07-22T15:03:06;10.82;;;4.68;;
8857;SDS011;4465;50.904;4.696;2022-07-22T15:05:34;7.80;;;4.05;;
8857;SDS011;4465;50.904;4.696;2022-07-22T15:08:00;11.05;;;4.70;;
8857;SDS011;4465;50.904;4.696;2022-07-22T15:10:26;7.03;;;4.20;;
8857;SDS011;4465;50.904;4.696;2022-07-22T15:12:55;7.85;;;4.38;;
8857;SDS011;4465;50.904;4.696;2022-07-22T15:15:23;11.40;;;4.97;;
8857;SDS011;4465;50.904;4.696;2022-07-22T15:17:49;8.85;;;4.30;;
8857;SDS011;4465;50.904;4.696;2022-07-22T15:20:15;12.77;;;4.82;;
8857;SDS011;4465;50.904;4.696;2022-07-22T15:22:41;9.23;;;4.65;;
8857;SDS011;4465;50.904;4.696;2022-07-22T15:25:09;8.02;;;4.75;;
8857;SDS011;4465;50.904;4.696;2022-07-22T15:27:36;9.35;;;4.20;;
8857;SDS011;4465;50.904;4.696;2022-07-22T15:30:04;6.63;;;3.90;;
8857;SDS011;4465;50.904;4.696;2022-07-22T15:32:31;7.60;;;4.70;;
8857;SDS011;4465;50.904;4.696;2022-07-22T15:34:57;7.65;;;4.50;;
8857;SDS011;4465;50.904;4.696;2022-07-22T15:37:25;7.28;;;4.28;;
8857;SDS011;4465;50.904;4.696;2022-07-22T15:39:54;8.50;;;4.40;;
8857;SDS011;4465;50.904;4.696;2022-07-22T15:42:20;9.07;;;4.20;;
8857;SDS011;4465;50.904;4.696;2022-07-22T15:44:46;9.30;;;3.85;;
8857;SDS011;4465;50.904;4.696;2022-07-22T15:47:12;12.15;;;4.03;;
8857;SDS011;4465;50.904;4.696;2022-07-22T15:49:39;9.55;;;4.15;;
8857;SDS011;4465;50.904;4.696;2022-07-22T15:52:05;12.52;;;4.68;;
8857;SDS011;4465;50.904;4.696;2022-07-22T15:54:31;9.35;;;4.70;;
8857;SDS011;4465;50.904;4.696;2022-07-22T15:56:57;9.20;;;5.10;;
8857;SDS011;4465;50.904;4.696;2022-07-22T15:59:42;8.07;;;4.35;;
8857;SDS011;4465;50.904;4.696;2022-07-22T16:02:09;9.75;;;4.80;;